sensor_id;sensor_type;location;lat;lon;timestamp;P1;durP1;ratioP1;P2;durP2;ratioP2
43823;SDS011;29470;53.550;9.926;2023-02-28T00:03:29;5.95;;;1.77;;
43823;SDS011;29470;53.550;9.926;2023-02-28T00:08:32;3.83;;;1.70;;
43823;SDS011;29470;53.550;9.926;2023-02-28T00:13:37;4.97;;;1.50;;
43823;SDS011;29470;53.550;9.926;2023-02-28T00:18:43;3.38;;;1.40;;
43823;SDS011;29470;53.550;9.926;2023-02-28T00:23:46;6.22;;;1.98;;
43823;SDS011;29470;53.550;9.926;2023-02-28T00:28:52;4.25;;;1.92;;
43823;SDS011;29470;53.550;9.926;2023-02-28T00:33:56;5.15;;;1.58;;
43823;SDS011;29470;53.550;9.926;2023-02-28T00:38:59;4.68;;;1.65;;
43823;SDS011;29470;53.550;9.926;2023-02-28T00:44:03;4.90;;;2.08;;
43823;SDS011;29470;53.550;9.926;2023-02-28T00:49:06;4.35;;;2.08;;
43823;SDS011;29470;53.550;9.926;2023-02-28T00:54:09;4.22;;;2.00;;
43823;SDS011;29470;53.550;9.926;2023-02-28T00:59:14;4.15;;;2.22;;
43823;SDS011;29470;53.550;9.926;2023-02-28T01:04:18;5.65;;;1.83;;
43823;SDS011;29470;53.550;9.926;2023-02-28T01:09:21;5.40;;;2.13;;
43823;SDS011;29470;53.550;9.926;2023-02-28T01:14:25;5.82;;;2.30;;
43823;SDS011;29470;53.550;9.926;2023-02-28T01:19:28;6.13;;;2.30;;
43823;SDS011;29470;53.550;9.926;2023-02-28T01:24:31;5.97;;;2.30;;
43823;SDS011;29470;53.550;9.926;2023-02-28T01:29:36;5.20;;;2.17;;
43823;SDS011;29470;53.550;9.926;2023-02-28T01:34:39;4.88;;;1.90;;
43823;SDS011;29470;53.550;9.926;2023-02-28T01:39:42;4.65;;;2.10;;
43823;SDS011;29470;53.550;9.926;2023-02-28T01:45:01;5.60;;;2.22;;
43823;SDS011;29470;53.550;9.926;2023-02-28T01:50:09;5.00;;;2.42;;
43823;SDS011;29470;53.550;9.926;2023-02-28T01:55:17;6.88;;;2.70;;
43823;SDS011;29470;53.550;9.926;2023-02-28T02:00:24;8.63;;;2.65;;
43823;SDS011;29470;53.550;9.926;2023-02-28T02:05:30;7.57;;;3.45;;
43823;SDS011;29470;53.550;9.926;2023-02-28T02:10:35;6.95;;;3.15;;
43823;SDS011;29470;53.550;9.926;2023-02-28T02:15:44;6.28;;;2.90;;
43823;SDS011;29470;53.550;9.926;2023-02-28T02:26:50;4.90;;;2.85;;
43823;SDS011;29470;53.550;9.926;2023-02-28T02:32:15;7.72;;;3.35;;
43823;SDS011;29470;53.550;9.926;2023-02-28T02:37:36;6.30;;;3.10;;
43823;SDS011;29470;53.550;9.926;2023-02-28T02:42:45;4.82;;;2.90;;
43823;SDS011;29470;53.550;9.926;2023-02-28T02:47:53;4.63;;;2.30;;
43823;SDS011;29470;53.550;9.926;2023-02-28T02:53:00;7.43;;;2.70;;
43823;SDS011;29470;53.550;9.926;2023-02-28T02:58:07;5.67;;;2.70;;
43823;SDS011;29470;53.550;9.926;2023-02-28T03:03:13;6.35;;;2.83;;
43823;SDS011;29470;53.550;9.926;2023-02-28T03:08:20;7.00;;;3.47;;
43823;SDS011;29470;53.550;9.926;2023-02-28T03:13:29;9.43;;;3.10;;
43823;SDS011;29470;53.550;9.926;2023-02-28T03:18:46;7.35;;;3.45;;
43823;SDS011;29470;53.550;9.926;2023-02-28T03:23:59;7.18;;;3.75;;
43823;SDS011;29470;53.550;9.926;2023-02-28T03:29:09;6.90;;;3.70;;
43823;SDS011;29470;53.550;9.926;2023-02-28T03:34:19;6.97;;;3.60;;
43823;SDS011;29470;53.550;9.926;2023-02-28T03:39:31;8.27;;;4.07;;
43823;SDS011;29470;53.550;9.926;2023-02-28T03:44:39;7.60;;;4.20;;
43823;SDS011;29470;53.550;9.926;2023-02-28T03:49:46;11.40;;;5.25;;
43823;SDS011;29470;53.550;9.926;2023-02-28T03:54:56;9.93;;;4.85;;
43823;SDS011;29470;53.550;9.926;2023-02-28T04:00:08;9.55;;;5.38;;
43823;SDS011;29470;53.550;9.926;2023-02-28T04:05:16;9.73;;;5.35;;
43823;SDS011;29470;53.550;9.926;2023-02-28T04:10:20;10.00;;;4.80;;
43823;SDS011;29470;53.550;9.926;2023-02-28T04:15:24;13.77;;;5.13;;
43823;SDS011;29470;53.550;9.926;2023-02-28T04:20:28;9.05;;;5.00;;
43823;SDS011;29470;53.550;9.926;2023-02-28T04:25:32;8.90;;;5.38;;
43823;SDS011;29470;53.550;9.926;2023-02-28T04:30:35;9.52;;;4.90;;
43823;SDS011;29470;53.550;9.926;2023-02-28T04:35:39;11.02;;;5.20;;
43823;SDS011;29470;53.550;9.926;2023-02-28T04:40:43;10.60;;;5.50;;
43823;SDS011;29470;53.550;9.926;2023-02-28T04:45:46;9.63;;;5.70;;
43823;SDS011;29470;53.550;9.926;2023-02-28T04:50:49;11.57;;;5.65;;
43823;SDS011;29470;53.550;9.926;2023-02-28T04:55:53;13.38;;;6.13;;
43823;SDS011;29470;53.550;9.926;2023-02-28T05:01:00;11.65;;;5.88;;
43823;SDS011;29470;53.550;9.926;2023-02-28T05:06:05;17.52;;;6.75;;
43823;SDS011;29470;53.550;9.926;2023-02-28T05:11:12;11.80;;;6.15;;
43823;SDS011;29470;53.550;9.926;2023-02-28T05:16:17;12.40;;;5.60;;
43823;SDS011;29470;53.550;9.926;2023-02-28T05:21:23;10.07;;;5.30;;
43823;SDS011;29470;53.550;9.926;2023-02-28T05:26:29;13.52;;;5.90;;
43823;SDS011;29470;53.550;9.926;2023-02-28T05:31:32;12.88;;;6.03;;
43823;SDS011;29470;53.550;9.926;2023-02-28T05:36:36;12.15;;;6.28;;
43823;SDS011;29470;53.550;9.926;2023-02-28T05:41:41;12.52;;;7.60;;
43823;SDS011;29470;53.550;9.926;2023-02-28T05:46:44;17.45;;;7.18;;
43823;SDS011;29470;53.550;9.926;2023-02-28T05:51:47;20.92;;;7.45;;
43823;SDS011;29470;53.550;9.926;2023-02-28T05:56:51;17.00;;;7.13;;
43823;SDS011;29470;53.550;9.926;2023-02-28T06:01:54;9.93;;;6.25;;
43823;SDS011;29470;53.550;9.926;2023-02-28T06:06:57;12.32;;;5.95;;
43823;SDS011;29470;53.550;9.926;2023-02-28T06:12:02;12.18;;;6.03;;
43823;SDS011;29470;53.550;9.926;2023-02-28T06:17:06;13.77;;;6.53;;
43823;SDS011;29470;53.550;9.926;2023-02-28T06:22:11;11.65;;;6.07;;
43823;SDS011;29470;53.550;9.926;2023-02-28T06:27:15;13.52;;;7.05;;
43823;SDS011;29470;53.550;9.926;2023-02-28T06:32:18;17.00;;;7.55;;
43823;SDS011;29470;53.550;9.926;2023-02-28T06:37:21;17.13;;;8.50;;
43823;SDS011;29470;53.550;9.926;2023-02-28T06:42:28;15.88;;;8.45;;
43823;SDS011;29470;53.550;9.926;2023-02-28T06:47:32;31.15;;;9.45;;
43823;SDS011;29470;53.550;9.926;2023-02-28T06:52:34;17.65;;;8.02;;
43823;SDS011;29470;53.550;9.926;2023-02-28T06:57:39;16.23;;;6.78;;
43823;SDS011;29470;53.550;9.926;2023-02-28T07:02:42;22.90;;;8.32;;
43823;SDS011;29470;53.550;9.926;2023-02-28T07:07:45;25.02;;;8.55;;
43823;SDS011;29470;53.550;9.926;2023-02-28T07:12:49;20.33;;;7.53;;
43823;SDS011;29470;53.550;9.926;2023-02-28T07:17:52;18.90;;;7.00;;
43823;SDS011;29470;53.550;9.926;2023-02-28T07:22:55;12.65;;;6.38;;
43823;SDS011;29470;53.550;9.926;2023-02-28T07:27:59;12.27;;;6.78;;
43823;SDS011;29470;53.550;9.926;2023-02-28T07:33:02;20.88;;;8.10;;
43823;SDS011;29470;53.550;9.926;2023-02-28T07:38:05;12.27;;;6.50;;
43823;SDS011;29470;53.550;9.926;2023-02-28T07:43:11;11.05;;;6.68;;
43823;SDS011;29470;53.550;9.926;2023-02-28T07:48:13;14.95;;;7.78;;
43823;SDS011;29470;53.550;9.926;2023-02-28T07:53:16;15.80;;;7.50;;
43823;SDS011;29470;53.550;9.926;2023-02-28T07:58:20;12.20;;;6.55;;
43823;SDS011;29470;53.550;9.926;2023-02-28T08:03:23;6.65;;;3.67;;
43823;SDS011;29470;53.550;9.926;2023-02-28T08:08:27;12.60;;;3.70;;
43823;SDS011;29470;53.550;9.926;2023-02-28T08:13:33;8.32;;;3.63;;
43823;SDS011;29470;53.550;9.926;2023-02-28T08:18:36;13.80;;;3.83;;
43823;SDS011;29470;53.550;9.926;2023-02-28T08:23:39;5.75;;;2.83;;
43823;SDS011;29470;53.550;9.926;2023-02-28T08:28:43;4.95;;;2.78;;
43823;SDS011;29470;53.550;9.926;2023-02-28T08:33:46;6.53;;;2.75;;
43823;SDS011;29470;53.550;9.926;2023-02-28T08:38:52;6.25;;;2.97;;
43823;SDS011;29470;53.550;9.926;2023-02-28T08:43:56;5.35;;;2.95;;
43823;SDS011;29470;53.550;9.926;2023-02-28T08:48:59;4.13;;;2.65;;
43823;SDS011;29470;53.550;9.926;2023-02-28T08:54:03;4.95;;;2.67;;
43823;SDS011;29470;53.550;9.926;2023-02-28T08:59:08;6.07;;;3.22;;
43823;SDS011;29470;53.550;9.926;2023-02-28T09:04:12;6.20;;;3.40;;
43823;SDS011;29470;53.550;9.926;2023-02-28T09:14:24;7.05;;;2.88;;
43823;SDS011;29470;53.550;9.926;2023-02-28T09:19:27;4.43;;;2.50;;
43823;SDS011;29470;53.550;9.926;2023-02-28T09:24:30;4.35;;;1.90;;
43823;SDS011;29470;53.550;9.926;2023-02-28T09:29:35;3.28;;;1.77;;
43823;SDS011;29470;53.550;9.926;2023-02-28T09:34:38;3.63;;;1.40;;
43823;SDS011;29470;53.550;9.926;2023-02-28T09:39:41;4.72;;;1.70;;
43823;SDS011;29470;53.550;9.926;2023-02-28T09:44:45;3.28;;;1.13;;
43823;SDS011;29470;53.550;9.926;2023-02-28T09:49:49;3.67;;;1.45;;
43823;SDS011;29470;53.550;9.926;2023-02-28T09:54:52;2.08;;;0.93;;
43823;SDS011;29470;53.550;9.926;2023-02-28T10:00:05;5.40;;;1.27;;
43823;SDS011;29470;53.550;9.926;2023-02-28T10:05:18;2.40;;;1.10;;
43823;SDS011;29470;53.550;9.926;2023-02-28T10:10:26;1.27;;;0.70;;
43823;SDS011;29470;53.550;9.926;2023-02-28T10:15:33;1.83;;;0.50;;
43823;SDS011;29470;53.550;9.926;2023-02-28T10:20:39;1.33;;;0.60;;
43823;SDS011;29470;53.550;9.926;2023-02-28T10:25:44;3.72;;;0.70;;
43823;SDS011;29470;53.550;9.926;2023-02-28T10:30:53;1.77;;;0.98;;
43823;SDS011;29470;53.550;9.926;2023-02-28T10:35:57;1.75;;;1.00;;
43823;SDS011;29470;53.550;9.926;2023-02-28T10:41:03;3.05;;;1.38;;
43823;SDS011;29470;53.550;9.926;2023-02-28T10:46:16;3.47;;;1.80;;
43823;SDS011;29470;53.550;9.926;2023-02-28T10:51:27;3.72;;;1.77;;
43823;SDS011;29470;53.550;9.926;2023-02-28T10:56:37;4.50;;;2.10;;
43823;SDS011;29470;53.550;9.926;2023-02-28T11:01:41;6.13;;;2.17;;
43823;SDS011;29470;53.550;9.926;2023-02-28T11:06:48;3.08;;;1.63;;
43823;SDS011;29470;53.550;9.926;2023-02-28T11:12:00;3.33;;;1.75;;
43823;SDS011;29470;53.550;9.926;2023-02-28T11:17:13;3.70;;;1.60;;
43823;SDS011;29470;53.550;9.926;2023-02-28T11:22:22;3.30;;;1.38;;
43823;SDS011;29470;53.550;9.926;2023-02-28T11:32:49;6.55;;;1.75;;
43823;SDS011;29470;53.550;9.926;2023-02-28T11:37:53;4.15;;;1.52;;
43823;SDS011;29470;53.550;9.926;2023-02-28T11:43:05;3.25;;;1.40;;
43823;SDS011;29470;53.550;9.926;2023-02-28T11:48:20;5.38;;;1.70;;
43823;SDS011;29470;53.550;9.926;2023-02-28T11:53:30;3.88;;;1.70;;
43823;SDS011;29470;53.550;9.926;2023-02-28T11:58:46;4.60;;;2.00;;
43823;SDS011;29470;53.550;9.926;2023-02-28T12:04:00;4.60;;;1.90;;
43823;SDS011;29470;53.550;9.926;2023-02-28T12:09:18;4.85;;;2.08;;
43823;SDS011;29470;53.550;9.926;2023-02-28T12:14:45;4.80;;;1.98;;
43823;SDS011;29470;53.550;9.926;2023-02-28T12:20:01;6.55;;;1.83;;
43823;SDS011;29470;53.550;9.926;2023-02-28T12:30:54;3.13;;;2.08;;
43823;SDS011;29470;53.550;9.926;2023-02-28T12:36:05;2.67;;;1.85;;
43823;SDS011;29470;53.550;9.926;2023-02-28T12:41:13;6.50;;;2.22;;
43823;SDS011;29470;53.550;9.926;2023-02-28T12:46:21;5.13;;;2.10;;
43823;SDS011;29470;53.550;9.926;2023-02-28T12:51:29;3.93;;;2.20;;
43823;SDS011;29470;53.550;9.926;2023-02-28T12:56:38;7.50;;;2.50;;
43823;SDS011;29470;53.550;9.926;2023-02-28T13:01:49;4.95;;;2.10;;
43823;SDS011;29470;53.550;9.926;2023-02-28T13:07:10;3.88;;;1.98;;
43823;SDS011;29470;53.550;9.926;2023-02-28T13:12:28;3.35;;;1.83;;
43823;SDS011;29470;53.550;9.926;2023-02-28T13:17:31;2.95;;;1.85;;
43823;SDS011;29470;53.550;9.926;2023-02-28T13:22:38;6.30;;;2.42;;
43823;SDS011;29470;53.550;9.926;2023-02-28T13:27:43;3.17;;;2.10;;
43823;SDS011;29470;53.550;9.926;2023-02-28T13:32:47;4.45;;;1.60;;
43823;SDS011;29470;53.550;9.926;2023-02-28T13:38:35;3.75;;;1.83;;
43823;SDS011;29470;53.550;9.926;2023-02-28T13:49:19;7.30;;;2.85;;
43823;SDS011;29470;53.550;9.926;2023-02-28T13:54:24;3.90;;;2.30;;
43823;SDS011;29470;53.550;9.926;2023-02-28T13:59:38;5.85;;;2.17;;
43823;SDS011;29470;53.550;9.926;2023-02-28T14:04:57;4.65;;;2.90;;
43823;SDS011;29470;53.550;9.926;2023-02-28T14:10:04;5.25;;;1.90;;
43823;SDS011;29470;53.550;9.926;2023-02-28T14:20:48;6.65;;;1.92;;
43823;SDS011;29470;53.550;9.926;2023-02-28T14:25:54;4.82;;;2.17;;
43823;SDS011;29470;53.550;9.926;2023-02-28T14:31:08;6.22;;;1.90;;
43823;SDS011;29470;53.550;9.926;2023-02-28T14:36:18;3.80;;;1.83;;
43823;SDS011;29470;53.550;9.926;2023-02-28T14:41:24;4.28;;;1.88;;
43823;SDS011;29470;53.550;9.926;2023-02-28T14:46:34;5.32;;;2.67;;
43823;SDS011;29470;53.550;9.926;2023-02-28T14:51:41;5.90;;;2.03;;
43823;SDS011;29470;53.550;9.926;2023-02-28T14:56:48;5.70;;;2.58;;
43823;SDS011;29470;53.550;9.926;2023-02-28T15:01:51;8.85;;;2.90;;
43823;SDS011;29470;53.550;9.926;2023-02-28T15:07:08;6.63;;;2.53;;
43823;SDS011;29470;53.550;9.926;2023-02-28T15:12:12;12.40;;;3.97;;
43823;SDS011;29470;53.550;9.926;2023-02-28T15:17:19;5.05;;;2.20;;
43823;SDS011;29470;53.550;9.926;2023-02-28T15:27:32;6.88;;;2.30;;
43823;SDS011;29470;53.550;9.926;2023-02-28T15:32:41;6.40;;;2.85;;
43823;SDS011;29470;53.550;9.926;2023-02-28T15:37:47;7.25;;;2.83;;
43823;SDS011;29470;53.550;9.926;2023-02-28T15:42:57;6.43;;;2.08;;
43823;SDS011;29470;53.550;9.926;2023-02-28T15:48:01;4.47;;;2.13;;
43823;SDS011;29470;53.550;9.926;2023-02-28T15:53:18;3.40;;;2.20;;
43823;SDS011;29470;53.550;9.926;2023-02-28T15:58:23;4.15;;;2.20;;
43823;SDS011;29470;53.550;9.926;2023-02-28T16:03:27;4.18;;;1.90;;
43823;SDS011;29470;53.550;9.926;2023-02-28T16:08:45;4.68;;;1.95;;
43823;SDS011;29470;53.550;9.926;2023-02-28T16:13:50;5.93;;;2.38;;
43823;SDS011;29470;53.550;9.926;2023-02-28T16:18:55;4.20;;;1.98;;
43823;SDS011;29470;53.550;9.926;2023-02-28T16:23:59;4.75;;;2.30;;
43823;SDS011;29470;53.550;9.926;2023-02-28T16:29:02;4.90;;;2.25;;
43823;SDS011;29470;53.550;9.926;2023-02-28T16:34:06;8.75;;;3.40;;
43823;SDS011;29470;53.550;9.926;2023-02-28T16:39:10;7.90;;;3.58;;
43823;SDS011;29470;53.550;9.926;2023-02-28T16:44:13;5.38;;;2.65;;
43823;SDS011;29470;53.550;9.926;2023-02-28T16:49:23;8.57;;;4.00;;
43823;SDS011;29470;53.550;9.926;2023-02-28T16:54:30;7.35;;;3.25;;
43823;SDS011;29470;53.550;9.926;2023-02-28T16:59:33;8.60;;;3.92;;
43823;SDS011;29470;53.550;9.926;2023-02-28T17:04:35;5.25;;;2.20;;
43823;SDS011;29470;53.550;9.926;2023-02-28T17:09:40;6.85;;;3.35;;
43823;SDS011;29470;53.550;9.926;2023-02-28T17:14:45;5.72;;;2.47;;
43823;SDS011;29470;53.550;9.926;2023-02-28T17:19:48;4.90;;;2.40;;
43823;SDS011;29470;53.550;9.926;2023-02-28T17:24:53;10.25;;;3.78;;
43823;SDS011;29470;53.550;9.926;2023-02-28T17:29:59;5.57;;;2.38;;
43823;SDS011;29470;53.550;9.926;2023-02-28T17:35:02;5.07;;;2.15;;
43823;SDS011;29470;53.550;9.926;2023-02-28T17:40:10;9.27;;;3.45;;
43823;SDS011;29470;53.550;9.926;2023-02-28T17:45:16;7.20;;;2.67;;
43823;SDS011;29470;53.550;9.926;2023-02-28T17:50:20;6.63;;;3.53;;
43823;SDS011;29470;53.550;9.926;2023-02-28T17:55:25;10.63;;;4.30;;
43823;SDS011;29470;53.550;9.926;2023-02-28T18:00:28;8.68;;;3.83;;
43823;SDS011;29470;53.550;9.926;2023-02-28T18:05:33;10.38;;;4.00;;
43823;SDS011;29470;53.550;9.926;2023-02-28T18:10:39;32.05;;;15.57;;
43823;SDS011;29470;53.550;9.926;2023-02-28T18:15:42;9.68;;;4.22;;
43823;SDS011;29470;53.550;9.926;2023-02-28T18:20:45;10.52;;;3.78;;
43823;SDS011;29470;53.550;9.926;2023-02-28T18:25:51;11.18;;;3.80;;
43823;SDS011;29470;53.550;9.926;2023-02-28T18:30:54;7.80;;;3.67;;
43823;SDS011;29470;53.550;9.926;2023-02-28T18:35:57;8.23;;;4.20;;
43823;SDS011;29470;53.550;9.926;2023-02-28T18:41:02;9.23;;;5.07;;
43823;SDS011;29470;53.550;9.926;2023-02-28T18:46:08;17.85;;;6.97;;
43823;SDS011;29470;53.550;9.926;2023-02-28T18:51:13;13.75;;;4.43;;
43823;SDS011;29470;53.550;9.926;2023-02-28T18:56:19;10.77;;;4.97;;
43823;SDS011;29470;53.550;9.926;2023-02-28T19:01:24;14.75;;;5.45;;
43823;SDS011;29470;53.550;9.926;2023-02-28T19:06:31;12.57;;;5.30;;
43823;SDS011;29470;53.550;9.926;2023-02-28T19:11:36;26.95;;;9.52;;
43823;SDS011;29470;53.550;9.926;2023-02-28T19:16:39;13.52;;;6.10;;
43823;SDS011;29470;53.550;9.926;2023-02-28T19:21:42;15.55;;;6.00;;
43823;SDS011;29470;53.550;9.926;2023-02-28T19:26:46;14.38;;;6.50;;
43823;SDS011;29470;53.550;9.926;2023-02-28T19:31:49;16.90;;;7.40;;
43823;SDS011;29470;53.550;9.926;2023-02-28T19:36:53;14.68;;;7.57;;
43823;SDS011;29470;53.550;9.926;2023-02-28T19:41:58;12.80;;;6.65;;
43823;SDS011;29470;53.550;9.926;2023-02-28T19:47:01;12.65;;;6.60;;
43823;SDS011;29470;53.550;9.926;2023-02-28T19:52:04;13.93;;;6.75;;
43823;SDS011;29470;53.550;9.926;2023-02-28T19:57:10;12.23;;;5.60;;
43823;SDS011;29470;53.550;9.926;2023-02-28T20:02:13;11.25;;;5.10;;
43823;SDS011;29470;53.550;9.926;2023-02-28T20:07:18;12.27;;;6.07;;
43823;SDS011;29470;53.550;9.926;2023-02-28T20:12:23;13.00;;;6.82;;
43823;SDS011;29470;53.550;9.926;2023-02-28T20:17:27;9.85;;;5.25;;
43823;SDS011;29470;53.550;9.926;2023-02-28T20:22:30;13.75;;;7.22;;
43823;SDS011;29470;53.550;9.926;2023-02-28T20:27:34;11.43;;;5.13;;
43823;SDS011;29470;53.550;9.926;2023-02-28T20:32:37;11.02;;;4.88;;
43823;SDS011;29470;53.550;9.926;2023-02-28T20:37:40;10.98;;;5.20;;
43823;SDS011;29470;53.550;9.926;2023-02-28T20:42:44;19.48;;;8.18;;
43823;SDS011;29470;53.550;9.926;2023-02-28T20:47:47;17.95;;;8.02;;
43823;SDS011;29470;53.550;9.926;2023-02-28T20:52:51;19.15;;;8.48;;
43823;SDS011;29470;53.550;9.926;2023-02-28T20:57:56;16.58;;;6.15;;
43823;SDS011;29470;53.550;9.926;2023-02-28T21:02:58;15.63;;;8.48;;
43823;SDS011;29470;53.550;9.926;2023-02-28T21:08:01;17.10;;;8.23;;
43823;SDS011;29470;53.550;9.926;2023-02-28T21:13:05;14.00;;;7.75;;
43823;SDS011;29470;53.550;9.926;2023-02-28T21:18:08;12.07;;;5.85;;
43823;SDS011;29470;53.550;9.926;2023-02-28T21:23:11;13.95;;;6.32;;
43823;SDS011;29470;53.550;9.926;2023-02-28T21:28:15;12.90;;;4.32;;
43823;SDS011;29470;53.550;9.926;2023-02-28T21:33:18;10.52;;;3.97;;
43823;SDS011;29470;53.550;9.926;2023-02-28T21:38:21;10.02;;;4.32;;
43823;SDS011;29470;53.550;9.926;2023-02-28T21:43:25;16.40;;;7.53;;
43823;SDS011;29470;53.550;9.926;2023-02-28T21:48:28;8.98;;;4.00;;
43823;SDS011;29470;53.550;9.926;2023-02-28T21:53:31;10.40;;;4.75;;
43823;SDS011;29470;53.550;9.926;2023-02-28T21:58:36;8.32;;;3.80;;
43823;SDS011;29470;53.550;9.926;2023-02-28T22:03:39;9.50;;;4.30;;
43823;SDS011;29470;53.550;9.926;2023-02-28T22:08:43;6.55;;;3.70;;
43823;SDS011;29470;53.550;9.926;2023-02-28T22:13:48;9.45;;;4.38;;
43823;SDS011;29470;53.550;9.926;2023-02-28T22:18:56;6.75;;;3.63;;
43823;SDS011;29470;53.550;9.926;2023-02-28T22:23:59;5.75;;;4.25;;
43823;SDS011;29470;53.550;9.926;2023-02-28T22:29:03;9.65;;;4.97;;
43823;SDS011;29470;53.550;9.926;2023-02-28T22:34:07;15.07;;;6.90;;
43823;SDS011;29470;53.550;9.926;2023-02-28T22:39:12;9.95;;;6.22;;
43823;SDS011;29470;53.550;9.926;2023-02-28T22:44:16;10.07;;;4.50;;
43823;SDS011;29470;53.550;9.926;2023-02-28T22:49:18;9.38;;;4.90;;
43823;SDS011;29470;53.550;9.926;2023-02-28T22:54:21;9.38;;;5.50;;
43823;SDS011;29470;53.550;9.926;2023-02-28T22:59:25;9.43;;;4.95;;
43823;SDS011;29470;53.550;9.926;2023-02-28T23:04:28;13.43;;;5.40;;
43823;SDS011;29470;53.550;9.926;2023-02-28T23:09:31;9.23;;;5.40;;
43823;SDS011;29470;53.550;9.926;2023-02-28T23:14:35;9.85;;;5.57;;
43823;SDS011;29470;53.550;9.926;2023-02-28T23:19:38;9.55;;;5.60;;
43823;SDS011;29470;53.550;9.926;2023-02-28T23:24:41;10.43;;;6.07;;
43823;SDS011;29470;53.550;9.926;2023-02-28T23:29:45;11.27;;;5.50;;
43823;SDS011;29470;53.550;9.926;2023-02-28T23:34:48;11.50;;;6.22;;
43823;SDS011;29470;53.550;9.926;2023-02-28T23:39:51;11.13;;;6.00;;
43823;SDS011;29470;53.550;9.926;2023-02-28T23:44:55;10.95;;;5.78;;
43823;SDS011;29470;53.550;9.926;2023-02-28T23:49:58;9.90;;;6.20;;
43823;SDS011;29470;53.550;9.926;2023-02-28T23:55:00;9.65;;;6.00;;
